sensor_id;sensor_type;location;lat;lon;timestamp;pressure;altitude;pressure_sealevel;temperature;humidity
43298;BME280;28892;55.640;37.532;2023-02-15T00:01:57;98961.03;;;-0.01;59.38
43298;BME280;28892;55.640;37.532;2023-02-15T00:04:24;98974.44;;;-0.06;59.21
43298;BME280;28892;55.640;37.532;2023-02-15T00:07:10;98978.13;;;0.03;59.11
43298;BME280;28892;55.640;37.532;2023-02-15T00:09:36;98990.31;;;-0.09;59.34
43298;BME280;28892;55.640;37.532;2023-02-15T00:12:02;98991.63;;;-0.03;59.60
43298;BME280;28892;55.640;37.532;2023-02-15T00:14:28;98998.50;;;-0.02;59.68
43298;BME280;28892;55.640;37.532;2023-02-15T00:16:54;98998.72;;;0.06;59.64
43298;BME280;28892;55.640;37.532;2023-02-15T00:19:21;98996.03;;;-0.04;59.23
43298;BME280;28892;55.640;37.532;2023-02-15T00:21:47;98986.31;;;-0.13;59.46
43298;BME280;28892;55.640;37.532;2023-02-15T00:24:15;99000.63;;;-0.19;59.74
43298;BME280;28892;55.640;37.532;2023-02-15T00:26:42;98988.31;;;-0.28;59.51
43298;BME280;28892;55.640;37.532;2023-02-15T00:29:09;98978.13;;;-0.31;59.64
43298;BME280;28892;55.640;37.532;2023-02-15T00:31:36;98995.66;;;-0.22;59.62
43298;BME280;28892;55.640;37.532;2023-02-15T00:34:04;98999.00;;;-0.20;59.58
43298;BME280;28892;55.640;37.532;2023-02-15T00:36:30;98989.97;;;-0.27;59.81
43298;BME280;28892;55.640;37.532;2023-02-15T00:38:56;98992.94;;;-0.32;60.25
43298;BME280;28892;55.640;37.532;2023-02-15T00:41:21;98993.97;;;-0.11;59.51
43298;BME280;28892;55.640;37.532;2023-02-15T00:43:47;99003.25;;;-0.07;59.62
43298;BME280;28892;55.640;37.532;2023-02-15T00:46:13;98986.41;;;-0.03;59.50
43298;BME280;28892;55.640;37.532;2023-02-15T00:48:38;98983.78;;;-0.03;59.47
43298;BME280;28892;55.640;37.532;2023-02-15T00:51:05;98991.50;;;-0.02;59.86
43298;BME280;28892;55.640;37.532;2023-02-15T00:53:30;98989.34;;;0.15;59.53
43298;BME280;28892;55.640;37.532;2023-02-15T00:55:57;99000.88;;;0.01;59.51
43298;BME280;28892;55.640;37.532;2023-02-15T00:58:23;99003.72;;;-0.02;59.47
43298;BME280;28892;55.640;37.532;2023-02-15T01:00:49;98997.91;;;-0.29;60.26
43298;BME280;28892;55.640;37.532;2023-02-15T01:03:17;99001.81;;;-0.11;60.04
43298;BME280;28892;55.640;37.532;2023-02-15T01:05:43;99005.38;;;-0.01;59.75
43298;BME280;28892;55.640;37.532;2023-02-15T01:08:09;99007.75;;;0.02;59.85
43298;BME280;28892;55.640;37.532;2023-02-15T01:10:37;99016.97;;;0.06;59.53
43298;BME280;28892;55.640;37.532;2023-02-15T01:13:04;99003.50;;;-0.10;59.92
43298;BME280;28892;55.640;37.532;2023-02-15T01:15:35;99009.78;;;-0.13;59.75
43298;BME280;28892;55.640;37.532;2023-02-15T01:18:04;99003.84;;;-0.04;59.55
43298;BME280;28892;55.640;37.532;2023-02-15T01:20:30;99007.97;;;-0.24;59.56
43298;BME280;28892;55.640;37.532;2023-02-15T01:22:56;99008.94;;;-0.13;59.95
43298;BME280;28892;55.640;37.532;2023-02-15T01:25:23;99019.59;;;-0.28;60.12
43298;BME280;28892;55.640;37.532;2023-02-15T01:27:49;99015.31;;;-0.29;59.31
43298;BME280;28892;55.640;37.532;2023-02-15T01:30:16;99020.53;;;-0.29;60.00
43298;BME280;28892;55.640;37.532;2023-02-15T01:32:42;99003.25;;;-0.19;59.29
43298;BME280;28892;55.640;37.532;2023-02-15T01:35:09;99022.56;;;-0.21;59.31
43298;BME280;28892;55.640;37.532;2023-02-15T01:37:36;99017.94;;;-0.29;59.76
43298;BME280;28892;55.640;37.532;2023-02-15T01:40:03;99008.31;;;-0.29;59.56
43298;BME280;28892;55.640;37.532;2023-02-15T01:42:31;99031.31;;;-0.34;59.65
43298;BME280;28892;55.640;37.532;2023-02-15T01:44:59;99031.78;;;-0.29;59.48
43298;BME280;28892;55.640;37.532;2023-02-15T01:48:03;99023.06;;;-0.05;59.69
43298;BME280;28892;55.640;37.532;2023-02-15T01:50:34;99032.53;;;-0.04;59.51
43298;BME280;28892;55.640;37.532;2023-02-15T01:53:06;99029.19;;;-0.06;59.25
43298;BME280;28892;55.640;37.532;2023-02-15T01:55:38;99026.00;;;-0.32;59.11
43298;BME280;28892;55.640;37.532;2023-02-15T01:58:06;99022.56;;;-0.33;59.14
43298;BME280;28892;55.640;37.532;2023-02-15T02:00:33;99034.75;;;-0.22;59.00
43298;BME280;28892;55.640;37.532;2023-02-15T02:03:00;99049.53;;;-0.45;59.85
43298;BME280;28892;55.640;37.532;2023-02-15T02:05:27;99031.38;;;-0.58;60.14
43298;BME280;28892;55.640;37.532;2023-02-15T02:07:57;99033.56;;;-0.29;59.80
43298;BME280;28892;55.640;37.532;2023-02-15T02:10:24;99038.53;;;-0.26;59.07
43298;BME280;28892;55.640;37.532;2023-02-15T02:12:53;99043.91;;;-0.16;59.35
43298;BME280;28892;55.640;37.532;2023-02-15T02:15:25;99043.53;;;-0.23;59.64
43298;BME280;28892;55.640;37.532;2023-02-15T02:28:41;99041.16;;;-0.03;58.76
43298;BME280;28892;55.640;37.532;2023-02-15T02:31:37;99035.50;;;0.03;58.38
43298;BME280;28892;55.640;37.532;2023-02-15T02:37:58;99048.50;;;-0.31;58.42
43298;BME280;28892;55.640;37.532;2023-02-15T02:40:40;99052.16;;;-0.34;58.21
43298;BME280;28892;55.640;37.532;2023-02-15T02:43:25;99047.38;;;-0.51;58.67
43298;BME280;28892;55.640;37.532;2023-02-15T02:46:07;99046.72;;;-0.31;57.90
43298;BME280;28892;55.640;37.532;2023-02-15T02:48:37;99044.00;;;-0.29;57.66
43298;BME280;28892;55.640;37.532;2023-02-15T02:51:03;99062.84;;;-0.37;57.24
43298;BME280;28892;55.640;37.532;2023-02-15T02:53:30;99050.25;;;-0.43;57.04
43298;BME280;28892;55.640;37.532;2023-02-15T02:56:52;99053.13;;;-0.35;57.29
43298;BME280;28892;55.640;37.532;2023-02-15T02:59:24;99063.72;;;-0.49;57.10
43298;BME280;28892;55.640;37.532;2023-02-15T03:02:13;99052.94;;;-0.56;57.83
43298;BME280;28892;55.640;37.532;2023-02-15T03:04:45;99055.00;;;-0.48;57.54
43298;BME280;28892;55.640;37.532;2023-02-15T03:07:19;99057.19;;;-0.55;57.30
43298;BME280;28892;55.640;37.532;2023-02-15T03:10:24;99066.13;;;-0.46;57.56
43298;BME280;28892;55.640;37.532;2023-02-15T03:12:50;99046.75;;;-0.66;56.88
43298;BME280;28892;55.640;37.532;2023-02-15T03:15:24;99061.84;;;-0.59;57.30
43298;BME280;28892;55.640;37.532;2023-02-15T03:21:31;99066.56;;;-0.52;57.87
43298;BME280;28892;55.640;37.532;2023-02-15T03:24:37;99056.03;;;-0.51;57.50
43298;BME280;28892;55.640;37.532;2023-02-15T03:30:36;99064.03;;;-0.65;57.31
43298;BME280;28892;55.640;37.532;2023-02-15T03:33:04;99068.09;;;-0.61;57.30
43298;BME280;28892;55.640;37.532;2023-02-15T03:35:40;99067.28;;;-0.50;57.15
43298;BME280;28892;55.640;37.532;2023-02-15T03:38:09;99075.31;;;-0.65;57.35
43298;BME280;28892;55.640;37.532;2023-02-15T03:40:41;99074.56;;;-0.78;57.38
43298;BME280;28892;55.640;37.532;2023-02-15T03:43:49;99078.91;;;-0.79;57.55
43298;BME280;28892;55.640;37.532;2023-02-15T03:46:31;99077.78;;;-0.99;58.57
43298;BME280;28892;55.640;37.532;2023-02-15T03:49:09;99077.88;;;-0.76;57.73
43298;BME280;28892;55.640;37.532;2023-02-15T03:51:39;99072.13;;;-0.93;58.21
43298;BME280;28892;55.640;37.532;2023-02-15T03:54:27;99079.63;;;-0.77;58.25
43298;BME280;28892;55.640;37.532;2023-02-15T03:59:57;99082.28;;;-0.65;57.52
43298;BME280;28892;55.640;37.532;2023-02-15T04:02:55;99077.50;;;-0.83;58.05
43298;BME280;28892;55.640;37.532;2023-02-15T04:05:23;99085.97;;;-0.92;58.23
43298;BME280;28892;55.640;37.532;2023-02-15T04:07:48;99088.84;;;-0.84;57.96
43298;BME280;28892;55.640;37.532;2023-02-15T04:10:15;99087.59;;;-0.78;57.60
43298;BME280;28892;55.640;37.532;2023-02-15T04:12:59;99083.66;;;-0.84;57.61
43298;BME280;28892;55.640;37.532;2023-02-15T04:15:25;99090.47;;;-0.94;57.65
43298;BME280;28892;55.640;37.532;2023-02-15T04:18:11;99088.00;;;-1.09;57.41
43298;BME280;28892;55.640;37.532;2023-02-15T04:20:36;99084.19;;;-1.41;57.74
43298;BME280;28892;55.640;37.532;2023-02-15T04:23:21;99081.66;;;-1.05;57.50
43298;BME280;28892;55.640;37.532;2023-02-15T04:26:08;99087.69;;;-1.04;57.44
43298;BME280;28892;55.640;37.532;2023-02-15T04:28:34;99088.56;;;-1.17;57.68
43298;BME280;28892;55.640;37.532;2023-02-15T04:31:00;99086.63;;;-1.26;57.33
43298;BME280;28892;55.640;37.532;2023-02-15T04:33:26;99093.06;;;-1.19;57.22
43298;BME280;28892;55.640;37.532;2023-02-15T04:35:51;99093.16;;;-1.20;56.99
43298;BME280;28892;55.640;37.532;2023-02-15T04:38:17;99100.13;;;-1.08;57.06
43298;BME280;28892;55.640;37.532;2023-02-15T04:40:43;99101.84;;;-0.95;57.03
43298;BME280;28892;55.640;37.532;2023-02-15T04:43:08;99103.16;;;-0.90;56.80
43298;BME280;28892;55.640;37.532;2023-02-15T04:45:34;99101.31;;;-1.01;56.67
43298;BME280;28892;55.640;37.532;2023-02-15T04:48:00;99095.94;;;-1.10;56.56
43298;BME280;28892;55.640;37.532;2023-02-15T04:50:25;99093.97;;;-1.07;56.24
43298;BME280;28892;55.640;37.532;2023-02-15T04:52:51;99099.19;;;-1.07;55.94
43298;BME280;28892;55.640;37.532;2023-02-15T04:55:17;99099.53;;;-1.24;56.53
43298;BME280;28892;55.640;37.532;2023-02-15T04:57:43;99086.34;;;-1.10;55.66
43298;BME280;28892;55.640;37.532;2023-02-15T05:00:11;99090.22;;;-1.16;55.99
43298;BME280;28892;55.640;37.532;2023-02-15T05:02:37;99100.31;;;-1.11;56.47
43298;BME280;28892;55.640;37.532;2023-02-15T05:05:05;99086.41;;;-0.99;56.20
43298;BME280;28892;55.640;37.532;2023-02-15T05:07:35;99100.50;;;-1.01;55.84
43298;BME280;28892;55.640;37.532;2023-02-15T05:10:00;99103.19;;;-1.27;56.05
43298;BME280;28892;55.640;37.532;2023-02-15T05:12:28;99100.22;;;-1.09;56.33
43298;BME280;28892;55.640;37.532;2023-02-15T05:14:54;99098.63;;;-0.99;56.32
43298;BME280;28892;55.640;37.532;2023-02-15T05:17:22;99109.97;;;-1.00;55.61
43298;BME280;28892;55.640;37.532;2023-02-15T05:19:48;99115.66;;;-0.95;55.63
43298;BME280;28892;55.640;37.532;2023-02-15T05:22:14;99107.50;;;-1.15;55.65
43298;BME280;28892;55.640;37.532;2023-02-15T05:24:42;99121.19;;;-1.24;55.47
43298;BME280;28892;55.640;37.532;2023-02-15T05:27:28;99117.72;;;-1.11;55.99
43298;BME280;28892;55.640;37.532;2023-02-15T05:30:13;99123.41;;;-1.06;55.74
43298;BME280;28892;55.640;37.532;2023-02-15T05:32:39;99129.66;;;-1.09;55.26
43298;BME280;28892;55.640;37.532;2023-02-15T05:35:06;99121.03;;;-1.09;55.56
43298;BME280;28892;55.640;37.532;2023-02-15T05:37:31;99128.47;;;-1.16;55.42
43298;BME280;28892;55.640;37.532;2023-02-15T05:39:58;99123.19;;;-1.28;55.87
43298;BME280;28892;55.640;37.532;2023-02-15T05:42:23;99130.28;;;-1.30;56.09
43298;BME280;28892;55.640;37.532;2023-02-15T05:44:49;99122.72;;;-1.21;55.79
43298;BME280;28892;55.640;37.532;2023-02-15T05:47:15;99133.38;;;-1.24;55.62
43298;BME280;28892;55.640;37.532;2023-02-15T05:49:40;99135.66;;;-1.20;55.43
43298;BME280;28892;55.640;37.532;2023-02-15T05:52:06;99131.38;;;-1.21;55.44
43298;BME280;28892;55.640;37.532;2023-02-15T05:54:32;99129.91;;;-1.12;55.36
43298;BME280;28892;55.640;37.532;2023-02-15T05:56:57;99129.84;;;-0.99;55.76
43298;BME280;28892;55.640;37.532;2023-02-15T05:59:23;99141.16;;;-0.87;55.04
43298;BME280;28892;55.640;37.532;2023-02-15T06:01:49;99135.13;;;-0.88;54.90
43298;BME280;28892;55.640;37.532;2023-02-15T06:04:15;99140.66;;;-0.92;55.37
43298;BME280;28892;55.640;37.532;2023-02-15T06:06:40;99131.06;;;-1.16;54.81
43298;BME280;28892;55.640;37.532;2023-02-15T06:09:06;99138.56;;;-1.11;55.35
43298;BME280;28892;55.640;37.532;2023-02-15T06:11:32;99120.38;;;-1.37;55.25
43298;BME280;28892;55.640;37.532;2023-02-15T06:13:58;99133.22;;;-1.10;55.56
43298;BME280;28892;55.640;37.532;2023-02-15T06:16:23;99134.09;;;-1.22;55.11
43298;BME280;28892;55.640;37.532;2023-02-15T06:18:49;99128.25;;;-1.50;55.66
43298;BME280;28892;55.640;37.532;2023-02-15T06:21:15;99146.47;;;-1.26;55.77
43298;BME280;28892;55.640;37.532;2023-02-15T06:23:42;99143.56;;;-1.21;55.27
43298;BME280;28892;55.640;37.532;2023-02-15T06:26:08;99138.56;;;-1.11;55.45
43298;BME280;28892;55.640;37.532;2023-02-15T06:28:34;99148.56;;;-1.18;55.18
43298;BME280;28892;55.640;37.532;2023-02-15T06:30:59;99169.88;;;-1.50;55.28
43298;BME280;28892;55.640;37.532;2023-02-15T06:33:25;99156.00;;;-1.38;55.74
43298;BME280;28892;55.640;37.532;2023-02-15T06:35:51;99161.13;;;-1.49;55.88
43298;BME280;28892;55.640;37.532;2023-02-15T06:38:17;99167.09;;;-1.23;55.59
43298;BME280;28892;55.640;37.532;2023-02-15T06:40:43;99152.09;;;-1.19;55.46
43298;BME280;28892;55.640;37.532;2023-02-15T06:43:08;99148.84;;;-1.10;54.84
43298;BME280;28892;55.640;37.532;2023-02-15T06:45:34;99163.03;;;-1.14;55.08
43298;BME280;28892;55.640;37.532;2023-02-15T06:48:00;99175.00;;;-1.11;55.07
43298;BME280;28892;55.640;37.532;2023-02-15T06:50:25;99165.78;;;-1.29;56.03
43298;BME280;28892;55.640;37.532;2023-02-15T06:52:58;99174.53;;;-1.05;55.89
43298;BME280;28892;55.640;37.532;2023-02-15T06:55:24;99179.81;;;-1.18;55.94
43298;BME280;28892;55.640;37.532;2023-02-15T06:57:53;99170.03;;;-1.28;55.76
43298;BME280;28892;55.640;37.532;2023-02-15T07:00:24;99154.66;;;-1.44;55.88
43298;BME280;28892;55.640;37.532;2023-02-15T07:02:54;99164.78;;;-1.15;55.73
43298;BME280;28892;55.640;37.532;2023-02-15T07:05:24;99165.31;;;-1.09;55.51
43298;BME280;28892;55.640;37.532;2023-02-15T07:07:50;99170.03;;;-0.90;54.42
43298;BME280;28892;55.640;37.532;2023-02-15T07:10:15;99168.06;;;-1.00;54.59
43298;BME280;28892;55.640;37.532;2023-02-15T07:12:41;99162.47;;;-1.06;55.43
43298;BME280;28892;55.640;37.532;2023-02-15T07:15:16;99165.28;;;-0.96;54.90
43298;BME280;28892;55.640;37.532;2023-02-15T07:17:48;99161.66;;;-1.07;54.40
43298;BME280;28892;55.640;37.532;2023-02-15T07:20:24;99154.94;;;-0.98;54.69
43298;BME280;28892;55.640;37.532;2023-02-15T07:22:50;99159.31;;;-0.99;54.28
43298;BME280;28892;55.640;37.532;2023-02-15T07:25:16;99161.88;;;-0.86;54.47
43298;BME280;28892;55.640;37.532;2023-02-15T07:27:43;99173.66;;;-0.93;55.21
43298;BME280;28892;55.640;37.532;2023-02-15T07:30:12;99160.59;;;-1.04;54.92
43298;BME280;28892;55.640;37.532;2023-02-15T07:32:41;99159.81;;;-1.31;55.58
43298;BME280;28892;55.640;37.532;2023-02-15T07:35:26;99170.72;;;-1.13;55.85
43298;BME280;28892;55.640;37.532;2023-02-15T07:37:55;99168.81;;;-0.97;56.45
43298;BME280;28892;55.640;37.532;2023-02-15T07:40:21;99169.31;;;-0.92;56.31
43298;BME280;28892;55.640;37.532;2023-02-15T07:42:49;99168.28;;;-1.03;56.57
43298;BME280;28892;55.640;37.532;2023-02-15T07:45:17;99173.66;;;-0.93;56.40
43298;BME280;28892;55.640;37.532;2023-02-15T07:47:42;99172.81;;;-1.18;56.31
43298;BME280;28892;55.640;37.532;2023-02-15T07:50:08;99171.69;;;-0.89;56.28
43298;BME280;28892;55.640;37.532;2023-02-15T07:52:34;99170.81;;;-0.77;56.16
43298;BME280;28892;55.640;37.532;2023-02-15T07:55:00;99177.91;;;-0.79;55.61
43298;BME280;28892;55.640;37.532;2023-02-15T07:57:25;99173.72;;;-0.81;56.07
43298;BME280;28892;55.640;37.532;2023-02-15T07:59:51;99183.69;;;-0.62;56.14
43298;BME280;28892;55.640;37.532;2023-02-15T08:02:17;99179.56;;;-0.78;55.85
43298;BME280;28892;55.640;37.532;2023-02-15T08:04:43;99188.91;;;-0.62;55.77
43298;BME280;28892;55.640;37.532;2023-02-15T08:07:08;99177.56;;;-0.74;55.66
43298;BME280;28892;55.640;37.532;2023-02-15T08:09:34;99196.31;;;-0.69;56.05
43298;BME280;28892;55.640;37.532;2023-02-15T08:12:02;99189.19;;;-0.54;55.86
43298;BME280;28892;55.640;37.532;2023-02-15T08:14:28;99200.09;;;-0.49;55.41
43298;BME280;28892;55.640;37.532;2023-02-15T08:16:55;99187.94;;;-0.61;55.30
43298;BME280;28892;55.640;37.532;2023-02-15T08:19:33;99171.81;;;-0.66;55.21
43298;BME280;28892;55.640;37.532;2023-02-15T08:22:02;99199.13;;;-0.72;55.30
43298;BME280;28892;55.640;37.532;2023-02-15T08:24:34;99211.50;;;-0.63;55.00
43298;BME280;28892;55.640;37.532;2023-02-15T08:27:00;99202.47;;;-0.70;54.65
43298;BME280;28892;55.640;37.532;2023-02-15T08:29:30;99209.22;;;-0.67;54.24
43298;BME280;28892;55.640;37.532;2023-02-15T08:31:59;99214.75;;;-0.72;54.44
43298;BME280;28892;55.640;37.532;2023-02-15T08:34:29;99183.63;;;-0.74;54.41
43298;BME280;28892;55.640;37.532;2023-02-15T08:36:56;99200.63;;;-0.81;53.95
43298;BME280;28892;55.640;37.532;2023-02-15T08:39:22;99196.97;;;-0.78;53.79
43298;BME280;28892;55.640;37.532;2023-02-15T08:41:48;99214.72;;;-0.59;53.64
43298;BME280;28892;55.640;37.532;2023-02-15T08:44:15;99209.06;;;-0.77;53.78
43298;BME280;28892;55.640;37.532;2023-02-15T08:46:46;99203.88;;;-0.90;53.47
43298;BME280;28892;55.640;37.532;2023-02-15T08:49:15;99223.13;;;-0.80;53.27
43298;BME280;28892;55.640;37.532;2023-02-15T08:51:42;99224.13;;;-0.69;55.17
43298;BME280;28892;55.640;37.532;2023-02-15T08:54:12;99215.53;;;-0.83;54.58
43298;BME280;28892;55.640;37.532;2023-02-15T08:56:40;99213.94;;;-0.73;55.17
43298;BME280;28892;55.640;37.532;2023-02-15T08:59:14;99221.03;;;-0.50;54.39
43298;BME280;28892;55.640;37.532;2023-02-15T09:01:42;99229.31;;;-0.57;54.85
43298;BME280;28892;55.640;37.532;2023-02-15T09:04:08;99226.63;;;-0.44;54.24
43298;BME280;28892;55.640;37.532;2023-02-15T09:06:34;99229.59;;;-0.48;53.46
43298;BME280;28892;55.640;37.532;2023-02-15T09:09:01;99234.47;;;-0.81;54.56
43298;BME280;28892;55.640;37.532;2023-02-15T09:11:30;99212.47;;;-0.77;54.37
43298;BME280;28892;55.640;37.532;2023-02-15T09:14:07;99228.56;;;-0.83;54.51
43298;BME280;28892;55.640;37.532;2023-02-15T09:16:37;99225.25;;;-0.61;54.47
43298;BME280;28892;55.640;37.532;2023-02-15T09:19:04;99220.78;;;-0.59;53.96
43298;BME280;28892;55.640;37.532;2023-02-15T09:21:30;99223.31;;;-0.46;54.06
43298;BME280;28892;55.640;37.532;2023-02-15T09:24:08;99220.88;;;-0.36;53.86
43298;BME280;28892;55.640;37.532;2023-02-15T09:26:37;99223.41;;;-0.23;53.79
43298;BME280;28892;55.640;37.532;2023-02-15T09:29:06;99234.94;;;-0.14;53.69
43298;BME280;28892;55.640;37.532;2023-02-15T09:31:36;99220.38;;;-0.05;53.00
43298;BME280;28892;55.640;37.532;2023-02-15T09:34:03;99230.63;;;0.09;53.30
43298;BME280;28892;55.640;37.532;2023-02-15T09:36:34;99230.97;;;0.05;52.73
43298;BME280;28892;55.640;37.532;2023-02-15T09:56:09;99254.00;;;-0.13;53.75
43298;BME280;28892;55.640;37.532;2023-02-15T09:59:01;99263.03;;;0.18;53.15
43298;BME280;28892;55.640;37.532;2023-02-15T10:26:21;99257.69;;;-0.40;53.21
43298;BME280;28892;55.640;37.532;2023-02-15T10:29:04;99267.00;;;-0.25;53.15
43298;BME280;28892;55.640;37.532;2023-02-15T10:34:24;99270.50;;;-0.37;52.86
43298;BME280;28892;55.640;37.532;2023-02-15T10:55:18;99296.97;;;-0.31;52.93
43298;BME280;28892;55.640;37.532;2023-02-15T11:00:59;99299.44;;;-0.53;53.53
43298;BME280;28892;55.640;37.532;2023-02-15T11:06:21;99297.44;;;-0.50;54.06
43298;BME280;28892;55.640;37.532;2023-02-15T11:09:00;99306.63;;;-0.57;53.22
43298;BME280;28892;55.640;37.532;2023-02-15T11:11:36;99305.69;;;-0.56;53.53
43298;BME280;28892;55.640;37.532;2023-02-15T11:16:47;99296.34;;;-0.72;53.55
43298;BME280;28892;55.640;37.532;2023-02-15T11:19:30;99308.59;;;-0.48;53.40
43298;BME280;28892;55.640;37.532;2023-02-15T11:25:19;99303.16;;;-0.45;52.81
43298;BME280;28892;55.640;37.532;2023-02-15T11:27:48;99314.34;;;-0.55;53.31
43298;BME280;28892;55.640;37.532;2023-02-15T11:30:28;99317.25;;;-0.47;53.70
43298;BME280;28892;55.640;37.532;2023-02-15T11:33:02;99310.41;;;-0.61;53.86
43298;BME280;28892;55.640;37.532;2023-02-15T11:35:44;99317.38;;;-0.62;54.36
43298;BME280;28892;55.640;37.532;2023-02-15T11:38:17;99323.03;;;-0.31;54.24
43298;BME280;28892;55.640;37.532;2023-02-15T11:40:47;99329.72;;;-0.39;54.13
43298;BME280;28892;55.640;37.532;2023-02-15T11:43:26;99328.25;;;-0.44;54.23
43298;BME280;28892;55.640;37.532;2023-02-15T11:45:56;99325.75;;;-0.32;54.28
43298;BME280;28892;55.640;37.532;2023-02-15T11:48:22;99337.09;;;-0.58;54.38
43298;BME280;28892;55.640;37.532;2023-02-15T11:50:48;99326.97;;;-0.62;54.11
43298;BME280;28892;55.640;37.532;2023-02-15T11:53:21;99339.47;;;-0.67;54.79
43298;BME280;28892;55.640;37.532;2023-02-15T11:55:51;99337.00;;;-0.82;54.55
43298;BME280;28892;55.640;37.532;2023-02-15T12:03:52;99350.97;;;-0.83;55.17
43298;BME280;28892;55.640;37.532;2023-02-15T12:09:17;99354.38;;;-0.57;55.50
43298;BME280;28892;55.640;37.532;2023-02-15T12:11:40;99344.25;;;-0.48;55.19
43298;BME280;28892;55.640;37.532;2023-02-15T12:14:11;99360.59;;;-0.46;54.69
43298;BME280;28892;55.640;37.532;2023-02-15T12:19:31;99366.31;;;-0.41;54.60
43298;BME280;28892;55.640;37.532;2023-02-15T12:22:38;99368.16;;;-0.80;55.30
43298;BME280;28892;55.640;37.532;2023-02-15T12:31:04;99372.06;;;-0.49;54.89
43298;BME280;28892;55.640;37.532;2023-02-15T12:36:55;99366.00;;;-0.49;54.53
43298;BME280;28892;55.640;37.532;2023-02-15T12:39:30;99380.63;;;-0.60;54.00
43298;BME280;28892;55.640;37.532;2023-02-15T12:42:08;99380.75;;;-0.48;54.36
43298;BME280;28892;55.640;37.532;2023-02-15T12:45:03;99377.06;;;-0.46;54.01
43298;BME280;28892;55.640;37.532;2023-02-15T12:47:31;99373.03;;;-0.63;54.26
43298;BME280;28892;55.640;37.532;2023-02-15T12:50:15;99379.47;;;-0.43;54.08
43298;BME280;28892;55.640;37.532;2023-02-15T12:53:13;99384.56;;;-0.41;53.97
43298;BME280;28892;55.640;37.532;2023-02-15T12:55:51;99387.38;;;-0.31;54.15
43298;BME280;28892;55.640;37.532;2023-02-15T12:58:25;99398.31;;;-0.39;53.08
43298;BME280;28892;55.640;37.532;2023-02-15T13:01:13;99387.56;;;-0.34;53.11
43298;BME280;28892;55.640;37.532;2023-02-15T13:04:06;99415.44;;;-0.35;53.04
43298;BME280;28892;55.640;37.532;2023-02-15T13:07:24;99407.75;;;-0.62;53.15
43298;BME280;28892;55.640;37.532;2023-02-15T13:09:55;99407.44;;;-0.58;53.14
43298;BME280;28892;55.640;37.532;2023-02-15T13:12:30;99406.31;;;-0.16;52.17
43298;BME280;28892;55.640;37.532;2023-02-15T13:14:57;99406.81;;;-0.48;52.25
43298;BME280;28892;55.640;37.532;2023-02-15T13:17:30;99418.75;;;-0.46;52.72
43298;BME280;28892;55.640;37.532;2023-02-15T13:20:25;99396.41;;;-0.24;52.00
43298;BME280;28892;55.640;37.532;2023-02-15T13:23:31;99422.63;;;-0.38;51.83
43298;BME280;28892;55.640;37.532;2023-02-15T13:26:03;99417.84;;;-0.58;52.30
43298;BME280;28892;55.640;37.532;2023-02-15T13:29:43;99432.41;;;-0.42;52.56
43298;BME280;28892;55.640;37.532;2023-02-15T13:32:35;99432.22;;;-0.52;52.71
43298;BME280;28892;55.640;37.532;2023-02-15T13:35:14;99434.31;;;-0.44;52.43
43298;BME280;28892;55.640;37.532;2023-02-15T13:38:00;99444.09;;;-0.35;52.36
43298;BME280;28892;55.640;37.532;2023-02-15T13:40:53;99444.31;;;-0.38;52.37
43298;BME280;28892;55.640;37.532;2023-02-15T13:46:52;99437.66;;;-0.68;53.28
43298;BME280;28892;55.640;37.532;2023-02-15T13:52:27;99446.28;;;-0.67;53.59
43298;BME280;28892;55.640;37.532;2023-02-15T13:55:23;99454.00;;;-0.40;53.04
43298;BME280;28892;55.640;37.532;2023-02-15T13:58:34;99455.25;;;-0.20;53.09
43298;BME280;28892;55.640;37.532;2023-02-15T14:01:14;99450.97;;;-0.47;53.13
43298;BME280;28892;55.640;37.532;2023-02-15T14:10:29;99466.94;;;-0.38;52.08
43298;BME280;28892;55.640;37.532;2023-02-15T14:27:16;99480.16;;;-0.80;53.10
43298;BME280;28892;55.640;37.532;2023-02-15T14:29:59;99483.69;;;-0.81;52.96
43298;BME280;28892;55.640;37.532;2023-02-15T14:32:36;99476.00;;;-0.83;52.76
43298;BME280;28892;55.640;37.532;2023-02-15T14:35:08;99493.19;;;-0.80;52.79
43298;BME280;28892;55.640;37.532;2023-02-15T14:46:52;99487.47;;;-0.73;53.28
43298;BME280;28892;55.640;37.532;2023-02-15T14:56:45;99499.00;;;-0.90;53.24
43298;BME280;28892;55.640;37.532;2023-02-15T14:59:18;99497.44;;;-0.92;53.51
43298;BME280;28892;55.640;37.532;2023-02-15T15:04:35;99518.09;;;-0.76;54.03
43298;BME280;28892;55.640;37.532;2023-02-15T15:09:29;99496.53;;;-0.65;53.66
43298;BME280;28892;55.640;37.532;2023-02-15T15:14:44;99503.50;;;-0.79;53.62
43298;BME280;28892;55.640;37.532;2023-02-15T15:17:13;99520.38;;;-0.85;53.75
43298;BME280;28892;55.640;37.532;2023-02-15T15:20:12;99513.28;;;-0.82;53.97
43298;BME280;28892;55.640;37.532;2023-02-15T15:22:40;99518.31;;;-0.79;53.37
43298;BME280;28892;55.640;37.532;2023-02-15T15:27:56;99532.44;;;-0.83;53.41
43298;BME280;28892;55.640;37.532;2023-02-15T15:35:23;99528.31;;;-0.73;53.65
43298;BME280;28892;55.640;37.532;2023-02-15T15:49:01;99550.81;;;-0.72;53.32
43298;BME280;28892;55.640;37.532;2023-02-15T15:51:32;99543.53;;;-1.07;53.88
43298;BME280;28892;55.640;37.532;2023-02-15T15:54:00;99546.56;;;-1.14;53.54
43298;BME280;28892;55.640;37.532;2023-02-15T15:56:39;99553.00;;;-1.06;54.37
43298;BME280;28892;55.640;37.532;2023-02-15T15:59:24;99559.78;;;-1.31;54.53
43298;BME280;28892;55.640;37.532;2023-02-15T16:01:50;99554.78;;;-1.34;54.18
43298;BME280;28892;55.640;37.532;2023-02-15T16:04:28;99564.22;;;-1.19;54.45
43298;BME280;28892;55.640;37.532;2023-02-15T16:07:13;99560.44;;;-1.28;54.42
43298;BME280;28892;55.640;37.532;2023-02-15T16:12:47;99568.63;;;-1.34;54.97
43298;BME280;28892;55.640;37.532;2023-02-15T16:15:19;99572.31;;;-1.23;54.79
43298;BME280;28892;55.640;37.532;2023-02-15T16:17:49;99576.38;;;-1.19;54.95
43298;BME280;28892;55.640;37.532;2023-02-15T16:20:28;99571.81;;;-1.43;54.86
43298;BME280;28892;55.640;37.532;2023-02-15T16:23:12;99584.09;;;-1.18;54.71
43298;BME280;28892;55.640;37.532;2023-02-15T16:28:28;99589.97;;;-1.14;54.76
43298;BME280;28892;55.640;37.532;2023-02-15T16:31:14;99587.72;;;-0.93;54.71
43298;BME280;28892;55.640;37.532;2023-02-15T16:33:42;99590.97;;;-1.02;53.97